sensor_id;sensor_type;location;lat;lon;timestamp;temperature;humidity
8780;DHT22;62328;51.19929245;4.42130175;2023-02-25T00:00:07;7.10;99.90
8780;DHT22;62328;51.19929245;4.42130175;2023-02-25T00:02:42;7.10;99.90
8780;DHT22;62328;51.19929245;4.42130175;2023-02-25T00:05:09;7.10;99.90
8780;DHT22;62328;51.19929245;4.42130175;2023-02-25T00:07:36;7.00;99.90
8780;DHT22;62328;51.19929245;4.42130175;2023-02-25T00:10:04;7.10;99.90
8780;DHT22;62328;51.19929245;4.42130175;2023-02-25T00:12:33;7.10;99.90
8780;DHT22;62328;51.19929245;4.42130175;2023-02-25T00:15:00;7.10;99.90
8780;DHT22;62328;51.19929245;4.42130175;2023-02-25T00:17:27;7.10;99.90
8780;DHT22;62328;51.19929245;4.42130175;2023-02-25T00:19:54;7.10;99.90
8780;DHT22;62328;51.19929245;4.42130175;2023-02-25T00:22:22;7.20;99.90
8780;DHT22;62328;51.19929245;4.42130175;2023-02-25T00:24:51;7.20;99.90
8780;DHT22;62328;51.19929245;4.42130175;2023-02-25T00:27:18;7.20;99.90
8780;DHT22;62328;51.19929245;4.42130175;2023-02-25T00:29:47;7.20;99.90
8780;DHT22;62328;51.19929245;4.42130175;2023-02-25T00:32:17;7.20;99.90
8780;DHT22;62328;51.19929245;4.42130175;2023-02-25T00:34:44;7.20;99.90
8780;DHT22;62328;51.19929245;4.42130175;2023-02-25T00:37:12;7.20;99.90
8780;DHT22;62328;51.19929245;4.42130175;2023-02-25T00:39:39;7.10;99.90
8780;DHT22;62328;51.19929245;4.42130175;2023-02-25T00:42:10;7.10;99.90
8780;DHT22;62328;51.19929245;4.42130175;2023-02-25T00:44:38;7.00;99.90
8780;DHT22;62328;51.19929245;4.42130175;2023-02-25T00:47:06;7.00;99.90
8780;DHT22;62328;51.19929245;4.42130175;2023-02-25T00:49:33;7.00;99.90
8780;DHT22;62328;51.19929245;4.42130175;2023-02-25T00:52:01;6.90;99.90
8780;DHT22;62328;51.19929245;4.42130175;2023-02-25T00:54:28;6.90;99.90
8780;DHT22;62328;51.19929245;4.42130175;2023-02-25T00:56:54;6.90;99.90
8780;DHT22;62328;51.19929245;4.42130175;2023-02-25T00:59:21;6.90;99.90
8780;DHT22;62328;51.19929245;4.42130175;2023-02-25T01:01:49;6.90;99.90
8780;DHT22;62328;51.19929245;4.42130175;2023-02-25T01:04:17;6.80;99.90
8780;DHT22;62328;51.19929245;4.42130175;2023-02-25T01:06:44;6.80;99.90
8780;DHT22;62328;51.19929245;4.42130175;2023-02-25T01:09:11;6.70;99.90
8780;DHT22;62328;51.19929245;4.42130175;2023-02-25T01:11:41;6.60;99.90
8780;DHT22;62328;51.19929245;4.42130175;2023-02-25T01:14:11;6.60;99.90
8780;DHT22;62328;51.19929245;4.42130175;2023-02-25T01:16:38;6.50;99.90
8780;DHT22;62328;51.19929245;4.42130175;2023-02-25T01:19:07;6.50;99.90
8780;DHT22;62328;51.19929245;4.42130175;2023-02-25T01:21:40;6.50;99.90
8780;DHT22;62328;51.19929245;4.42130175;2023-02-25T01:24:10;6.40;99.90
8780;DHT22;62328;51.19929245;4.42130175;2023-02-25T01:26:41;6.40;99.90
8780;DHT22;62328;51.19929245;4.42130175;2023-02-25T01:29:10;6.40;99.90
8780;DHT22;62328;51.19929245;4.42130175;2023-02-25T01:31:37;6.30;99.90
8780;DHT22;62328;51.19929245;4.42130175;2023-02-25T01:34:06;6.30;99.90
8780;DHT22;62328;51.19929245;4.42130175;2023-02-25T01:36:33;6.30;99.90
8780;DHT22;62328;51.19929245;4.42130175;2023-02-25T01:39:02;6.20;99.90
8780;DHT22;62328;51.19929245;4.42130175;2023-02-25T01:41:31;6.20;99.90
8780;DHT22;62328;51.19929245;4.42130175;2023-02-25T01:44:07;6.20;99.90
8780;DHT22;62328;51.19929245;4.42130175;2023-02-25T01:46:34;6.20;99.90
8780;DHT22;62328;51.19929245;4.42130175;2023-02-25T01:49:01;6.20;99.90
8780;DHT22;62328;51.19929245;4.42130175;2023-02-25T01:51:31;6.20;99.90
8780;DHT22;62328;51.19929245;4.42130175;2023-02-25T01:53:59;6.20;99.90
8780;DHT22;62328;51.19929245;4.42130175;2023-02-25T01:56:30;6.20;99.90
8780;DHT22;62328;51.19929245;4.42130175;2023-02-25T01:58:57;6.30;99.90
8780;DHT22;62328;51.19929245;4.42130175;2023-02-25T02:01:28;6.30;99.90
8780;DHT22;62328;51.19929245;4.42130175;2023-02-25T02:03:57;6.30;99.90
8780;DHT22;62328;51.19929245;4.42130175;2023-02-25T02:06:26;6.30;99.90
8780;DHT22;62328;51.19929245;4.42130175;2023-02-25T02:08:55;6.40;99.90
8780;DHT22;62328;51.19929245;4.42130175;2023-02-25T02:11:22;6.40;99.90
8780;DHT22;62328;51.19929245;4.42130175;2023-02-25T02:13:54;6.40;99.90
8780;DHT22;62328;51.19929245;4.42130175;2023-02-25T02:16:35;6.40;99.90
8780;DHT22;62328;51.19929245;4.42130175;2023-02-25T02:19:13;6.40;99.90
8780;DHT22;62328;51.19929245;4.42130175;2023-02-25T02:21:52;6.50;99.90
8780;DHT22;62328;51.19929245;4.42130175;2023-02-25T02:25:01;6.50;99.90
8780;DHT22;62328;51.19929245;4.42130175;2023-02-25T02:27:49;6.50;99.90
8780;DHT22;62328;51.19929245;4.42130175;2023-02-25T02:33:28;6.60;99.90
8780;DHT22;62328;51.19929245;4.42130175;2023-02-25T02:36:06;6.60;99.90
8780;DHT22;62328;51.19929245;4.42130175;2023-02-25T02:38:39;6.60;99.90
8780;DHT22;62328;51.19929245;4.42130175;2023-02-25T02:41:13;6.60;99.90
8780;DHT22;62328;51.19929245;4.42130175;2023-02-25T02:43:48;6.60;99.90
8780;DHT22;62328;51.19929245;4.42130175;2023-02-25T02:46:21;6.60;99.90
8780;DHT22;62328;51.19929245;4.42130175;2023-02-25T02:48:53;6.60;99.90
8780;DHT22;62328;51.19929245;4.42130175;2023-02-25T02:51:25;6.60;99.90
8780;DHT22;62328;51.19929245;4.42130175;2023-02-25T02:53:56;6.70;99.90
8780;DHT22;62328;51.19929245;4.42130175;2023-02-25T02:56:26;6.70;99.90
8780;DHT22;62328;51.19929245;4.42130175;2023-02-25T02:59:00;6.70;99.90
8780;DHT22;62328;51.19929245;4.42130175;2023-02-25T03:01:33;6.70;99.90
8780;DHT22;62328;51.19929245;4.42130175;2023-02-25T03:04:04;6.70;99.90
8780;DHT22;62328;51.19929245;4.42130175;2023-02-25T03:06:35;6.70;99.90
8780;DHT22;62328;51.19929245;4.42130175;2023-02-25T03:09:06;6.70;99.90
8780;DHT22;62328;51.19929245;4.42130175;2023-02-25T03:11:34;6.70;99.90
8780;DHT22;62328;51.19929245;4.42130175;2023-02-25T03:14:01;6.70;99.90
8780;DHT22;62328;51.19929245;4.42130175;2023-02-25T03:16:33;6.70;99.90
8780;DHT22;62328;51.19929245;4.42130175;2023-02-25T03:19:07;6.70;99.90
8780;DHT22;62328;51.19929245;4.42130175;2023-02-25T03:21:41;6.80;99.90
8780;DHT22;62328;51.19929245;4.42130175;2023-02-25T03:24:13;6.80;99.90
8780;DHT22;62328;51.19929245;4.42130175;2023-02-25T03:26:41;6.80;99.90
8780;DHT22;62328;51.19929245;4.42130175;2023-02-25T03:29:14;6.80;99.90
8780;DHT22;62328;51.19929245;4.42130175;2023-02-25T03:31:46;6.80;99.90
8780;DHT22;62328;51.19929245;4.42130175;2023-02-25T03:34:19;6.90;99.90
8780;DHT22;62328;51.19929245;4.42130175;2023-02-25T03:36:50;6.90;99.90
8780;DHT22;62328;51.19929245;4.42130175;2023-02-25T03:39:21;6.90;99.90
8780;DHT22;62328;51.19929245;4.42130175;2023-02-25T03:41:53;6.90;99.90
8780;DHT22;62328;51.19929245;4.42130175;2023-02-25T03:44:24;6.90;99.90
8780;DHT22;62328;51.19929245;4.42130175;2023-02-25T03:46:53;6.90;99.90
8780;DHT22;62328;51.19929245;4.42130175;2023-02-25T03:49:25;6.90;99.90
8780;DHT22;62328;51.19929245;4.42130175;2023-02-25T03:51:54;6.90;99.90
8780;DHT22;62328;51.19929245;4.42130175;2023-02-25T03:54:22;6.90;99.90
8780;DHT22;62328;51.19929245;4.42130175;2023-02-25T03:56:50;6.90;99.90
8780;DHT22;62328;51.19929245;4.42130175;2023-02-25T03:59:18;6.90;99.90
8780;DHT22;62328;51.19929245;4.42130175;2023-02-25T04:01:49;7.00;99.90
8780;DHT22;62328;51.19929245;4.42130175;2023-02-25T04:04:16;7.00;99.90
8780;DHT22;62328;51.19929245;4.42130175;2023-02-25T04:06:45;7.00;99.90
8780;DHT22;62328;51.19929245;4.42130175;2023-02-25T04:09:12;7.00;99.90
8780;DHT22;62328;51.19929245;4.42130175;2023-02-25T04:11:38;7.00;99.90
8780;DHT22;62328;51.19929245;4.42130175;2023-02-25T04:14:05;7.00;99.90
8780;DHT22;62328;51.19929245;4.42130175;2023-02-25T04:16:32;6.90;99.90
8780;DHT22;62328;51.19929245;4.42130175;2023-02-25T04:18:59;7.00;99.90
8780;DHT22;62328;51.19929245;4.42130175;2023-02-25T04:21:28;6.90;99.90
8780;DHT22;62328;51.19929245;4.42130175;2023-02-25T04:23:57;6.90;99.90
8780;DHT22;62328;51.19929245;4.42130175;2023-02-25T04:26:25;6.90;99.90
8780;DHT22;62328;51.19929245;4.42130175;2023-02-25T04:28:52;6.80;99.90
8780;DHT22;62328;51.19929245;4.42130175;2023-02-25T04:31:19;6.80;99.90
8780;DHT22;62328;51.19929245;4.42130175;2023-02-25T04:33:46;6.80;99.90
8780;DHT22;62328;51.19929245;4.42130175;2023-02-25T04:36:22;6.80;99.90
8780;DHT22;62328;51.19929245;4.42130175;2023-02-25T04:38:49;6.80;99.90
8780;DHT22;62328;51.19929245;4.42130175;2023-02-25T04:41:17;6.80;99.90
8780;DHT22;62328;51.19929245;4.42130175;2023-02-25T04:43:44;6.90;99.90
8780;DHT22;62328;51.19929245;4.42130175;2023-02-25T04:46:11;6.80;99.90
8780;DHT22;62328;51.19929245;4.42130175;2023-02-25T04:48:38;6.80;99.90
8780;DHT22;62328;51.19929245;4.42130175;2023-02-25T04:51:05;6.80;99.90
8780;DHT22;62328;51.19929245;4.42130175;2023-02-25T04:53:32;6.90;99.90
8780;DHT22;62328;51.19929245;4.42130175;2023-02-25T04:56:01;6.90;99.90
8780;DHT22;62328;51.19929245;4.42130175;2023-02-25T04:58:30;6.90;99.90
8780;DHT22;62328;51.19929245;4.42130175;2023-02-25T05:00:58;6.90;99.90
8780;DHT22;62328;51.19929245;4.42130175;2023-02-25T05:03:25;6.90;99.90
8780;DHT22;62328;51.19929245;4.42130175;2023-02-25T05:05:52;6.90;99.90
8780;DHT22;62328;51.19929245;4.42130175;2023-02-25T05:08:19;6.90;99.90
8780;DHT22;62328;51.19929245;4.42130175;2023-02-25T05:10:47;6.90;99.90
8780;DHT22;62328;51.19929245;4.42130175;2023-02-25T05:13:14;6.90;99.90
8780;DHT22;62328;51.19929245;4.42130175;2023-02-25T05:15:42;6.90;99.90
8780;DHT22;62328;51.19929245;4.42130175;2023-02-25T05:18:10;6.90;99.90
8780;DHT22;62328;51.19929245;4.42130175;2023-02-25T05:20:38;6.90;99.90
8780;DHT22;62328;51.19929245;4.42130175;2023-02-25T05:23:06;6.90;99.90
8780;DHT22;62328;51.19929245;4.42130175;2023-02-25T05:25:33;7.00;99.90
8780;DHT22;62328;51.19929245;4.42130175;2023-02-25T05:28:00;6.90;99.90
8780;DHT22;62328;51.19929245;4.42130175;2023-02-25T05:30:27;7.00;99.90
8780;DHT22;62328;51.19929245;4.42130175;2023-02-25T05:32:55;7.00;99.90
8780;DHT22;62328;51.19929245;4.42130175;2023-02-25T05:35:22;7.00;99.90
8780;DHT22;62328;51.19929245;4.42130175;2023-02-25T05:37:49;7.00;99.90
8780;DHT22;62328;51.19929245;4.42130175;2023-02-25T05:40:16;7.00;99.90
8780;DHT22;62328;51.19929245;4.42130175;2023-02-25T05:42:43;7.00;99.90
8780;DHT22;62328;51.19929245;4.42130175;2023-02-25T05:45:15;7.00;99.90
8780;DHT22;62328;51.19929245;4.42130175;2023-02-25T05:47:42;6.90;99.90
8780;DHT22;62328;51.19929245;4.42130175;2023-02-25T05:50:11;6.90;99.90
8780;DHT22;62328;51.19929245;4.42130175;2023-02-25T05:52:38;6.90;99.90
8780;DHT22;62328;51.19929245;4.42130175;2023-02-25T05:55:06;6.80;99.90
8780;DHT22;62328;51.19929245;4.42130175;2023-02-25T05:57:34;6.70;99.90
8780;DHT22;62328;51.19929245;4.42130175;2023-02-25T06:00:01;6.70;99.90
8780;DHT22;62328;51.19929245;4.42130175;2023-02-25T06:02:31;6.60;99.90
8780;DHT22;62328;51.19929245;4.42130175;2023-02-25T06:04:58;6.60;99.90
8780;DHT22;62328;51.19929245;4.42130175;2023-02-25T06:07:29;6.50;99.90
8780;DHT22;62328;51.19929245;4.42130175;2023-02-25T06:09:56;6.40;99.90
8780;DHT22;62328;51.19929245;4.42130175;2023-02-25T06:12:25;6.40;99.90
8780;DHT22;62328;51.19929245;4.42130175;2023-02-25T06:14:53;6.30;99.90
8780;DHT22;62328;51.19929245;4.42130175;2023-02-25T06:17:20;6.30;99.90
8780;DHT22;62328;51.19929245;4.42130175;2023-02-25T06:19:50;6.30;99.90
8780;DHT22;62328;51.19929245;4.42130175;2023-02-25T06:22:17;6.30;99.90
8780;DHT22;62328;51.19929245;4.42130175;2023-02-25T06:24:46;6.40;99.90
8780;DHT22;62328;51.19929245;4.42130175;2023-02-25T06:27:14;6.40;99.90
8780;DHT22;62328;51.19929245;4.42130175;2023-02-25T06:29:41;6.50;99.90
8780;DHT22;62328;51.19929245;4.42130175;2023-02-25T06:32:09;6.50;99.90
8780;DHT22;62328;51.19929245;4.42130175;2023-02-25T06:34:36;6.60;99.90
8780;DHT22;62328;51.19929245;4.42130175;2023-02-25T06:37:06;6.60;99.90
8780;DHT22;62328;51.19929245;4.42130175;2023-02-25T06:39:33;6.60;99.90
8780;DHT22;62328;51.19929245;4.42130175;2023-02-25T06:42:01;6.60;99.90
8780;DHT22;62328;51.19929245;4.42130175;2023-02-25T06:44:28;6.60;99.90
8780;DHT22;62328;51.19929245;4.42130175;2023-02-25T06:46:55;6.70;99.90
8780;DHT22;62328;51.19929245;4.42130175;2023-02-25T06:49:23;6.70;99.90
8780;DHT22;62328;51.19929245;4.42130175;2023-02-25T06:51:50;6.80;99.90
8780;DHT22;62328;51.19929245;4.42130175;2023-02-25T06:54:17;6.70;99.90
8780;DHT22;62328;51.19929245;4.42130175;2023-02-25T06:56:44;6.80;99.90
8780;DHT22;62328;51.19929245;4.42130175;2023-02-25T06:59:13;6.80;99.90
8780;DHT22;62328;51.19929245;4.42130175;2023-02-25T07:01:40;6.80;99.90
8780;DHT22;62328;51.19929245;4.42130175;2023-02-25T07:04:09;6.80;99.90
8780;DHT22;62328;51.19929245;4.42130175;2023-02-25T07:06:39;6.80;99.90
8780;DHT22;62328;51.19929245;4.42130175;2023-02-25T07:09:06;6.80;99.90
8780;DHT22;62328;51.19929245;4.42130175;2023-02-25T07:11:34;6.80;99.90
8780;DHT22;62328;51.19929245;4.42130175;2023-02-25T07:14:01;6.80;99.90
8780;DHT22;62328;51.19929245;4.42130175;2023-02-25T07:16:30;6.70;99.90
8780;DHT22;62328;51.19929245;4.42130175;2023-02-25T07:18:59;6.80;99.90
8780;DHT22;62328;51.19929245;4.42130175;2023-02-25T07:21:27;6.70;99.90
8780;DHT22;62328;51.19929245;4.42130175;2023-02-25T07:23:55;6.80;99.90
8780;DHT22;62328;51.19929245;4.42130175;2023-02-25T07:26:23;6.80;99.90
8780;DHT22;62328;51.19929245;4.42130175;2023-02-25T07:28:53;6.80;99.90
8780;DHT22;62328;51.19929245;4.42130175;2023-02-25T07:31:21;6.80;99.90
8780;DHT22;62328;51.19929245;4.42130175;2023-02-25T07:33:49;6.90;99.90
8780;DHT22;62328;51.19929245;4.42130175;2023-02-25T07:36:17;6.90;99.90
8780;DHT22;62328;51.19929245;4.42130175;2023-02-25T07:38:44;6.90;99.90
8780;DHT22;62328;51.19929245;4.42130175;2023-02-25T07:41:16;7.00;99.90
8780;DHT22;62328;51.19929245;4.42130175;2023-02-25T07:43:43;7.00;99.90
8780;DHT22;62328;51.19929245;4.42130175;2023-02-25T07:46:10;7.10;99.90
8780;DHT22;62328;51.19929245;4.42130175;2023-02-25T07:48:38;7.10;99.90
8780;DHT22;62328;51.19929245;4.42130175;2023-02-25T07:51:08;7.10;99.90
8780;DHT22;62328;51.19929245;4.42130175;2023-02-25T07:53:35;7.10;99.90
8780;DHT22;62328;51.19929245;4.42130175;2023-02-25T07:56:02;7.10;99.90
8780;DHT22;62328;51.19929245;4.42130175;2023-02-25T07:58:30;7.10;99.90
8780;DHT22;62328;51.19929245;4.42130175;2023-02-25T08:00:57;7.10;99.90
8780;DHT22;62328;51.19929245;4.42130175;2023-02-25T08:03:25;7.00;99.90
8780;DHT22;62328;51.19929245;4.42130175;2023-02-25T08:05:52;7.00;99.90
8780;DHT22;62328;51.19929245;4.42130175;2023-02-25T08:08:21;7.00;99.90
8780;DHT22;62328;51.19929245;4.42130175;2023-02-25T08:10:48;7.00;99.90
8780;DHT22;62328;51.19929245;4.42130175;2023-02-25T08:13:14;7.10;99.90
8780;DHT22;62328;51.19929245;4.42130175;2023-02-25T08:15:42;7.10;99.90
8780;DHT22;62328;51.19929245;4.42130175;2023-02-25T08:18:10;7.20;99.90
8780;DHT22;62328;51.19929245;4.42130175;2023-02-25T08:20:38;7.30;99.90
8780;DHT22;62328;51.19929245;4.42130175;2023-02-25T08:23:04;7.30;99.90
8780;DHT22;62328;51.19929245;4.42130175;2023-02-25T08:25:35;7.30;99.90
8780;DHT22;62328;51.19929245;4.42130175;2023-02-25T08:28:02;7.30;99.90
8780;DHT22;62328;51.19929245;4.42130175;2023-02-25T08:30:29;7.30;99.90
8780;DHT22;62328;51.19929245;4.42130175;2023-02-25T08:32:56;7.40;99.90
8780;DHT22;62328;51.19929245;4.42130175;2023-02-25T08:35:23;7.30;99.90
8780;DHT22;62328;51.19929245;4.42130175;2023-02-25T08:37:50;7.30;99.90
8780;DHT22;62328;51.19929245;4.42130175;2023-02-25T08:40:18;7.30;99.90
8780;DHT22;62328;51.19929245;4.42130175;2023-02-25T08:53:07;7.40;99.90
8780;DHT22;62328;51.19929245;4.42130175;2023-02-25T08:55:35;7.40;99.90
8780;DHT22;62328;51.19929245;4.42130175;2023-02-25T08:58:03;7.30;99.90
8780;DHT22;62328;51.19929245;4.42130175;2023-02-25T09:00:30;7.30;99.90
8780;DHT22;62328;51.19929245;4.42130175;2023-02-25T09:02:57;7.40;99.90
8780;DHT22;62328;51.19929245;4.42130175;2023-02-25T09:05:24;7.30;99.90
8780;DHT22;62328;51.19929245;4.42130175;2023-02-25T09:07:51;7.40;99.90
8780;DHT22;62328;51.19929245;4.42130175;2023-02-25T09:10:19;7.40;99.90
8780;DHT22;62328;51.19929245;4.42130175;2023-02-25T09:12:49;7.50;99.90
8780;DHT22;62328;51.19929245;4.42130175;2023-02-25T09:15:16;7.50;99.90
8780;DHT22;62328;51.19929245;4.42130175;2023-02-25T09:17:42;7.60;99.90
8780;DHT22;62328;51.19929245;4.42130175;2023-02-25T09:20:10;7.70;99.90
8780;DHT22;62328;51.19929245;4.42130175;2023-02-25T09:22:38;7.70;99.90
8780;DHT22;62328;51.19929245;4.42130175;2023-02-25T09:25:06;7.70;99.90
8780;DHT22;62328;51.19929245;4.42130175;2023-02-25T09:27:34;7.60;99.90
8780;DHT22;62328;51.19929245;4.42130175;2023-02-25T09:30:01;7.60;99.90
8780;DHT22;62328;51.19929245;4.42130175;2023-02-25T09:32:28;7.70;99.90
8780;DHT22;62328;51.19929245;4.42130175;2023-02-25T09:34:55;7.80;99.90
8780;DHT22;62328;51.19929245;4.42130175;2023-02-25T09:37:23;7.80;99.90
8780;DHT22;62328;51.19929245;4.42130175;2023-02-25T09:39:50;7.90;99.90
8780;DHT22;62328;51.19929245;4.42130175;2023-02-25T09:42:19;8.00;99.90
8780;DHT22;62328;51.19929245;4.42130175;2023-02-25T09:44:52;8.10;99.90
8780;DHT22;62328;51.19929245;4.42130175;2023-02-25T09:47:26;8.20;99.90
8780;DHT22;62328;51.19929245;4.42130175;2023-02-25T09:49:56;8.20;99.90
8780;DHT22;62328;51.19929245;4.42130175;2023-02-25T09:52:28;8.30;99.90
8780;DHT22;62328;51.19929245;4.42130175;2023-02-25T09:54:59;8.50;99.90
8780;DHT22;62328;51.19929245;4.42130175;2023-02-25T09:57:29;8.60;99.90
8780;DHT22;62328;51.19929245;4.42130175;2023-02-25T09:59:58;8.60;99.90
8780;DHT22;62328;51.19929245;4.42130175;2023-02-25T10:02:30;8.60;99.90
8780;DHT22;62328;51.19929245;4.42130175;2023-02-25T10:05:12;8.70;99.90
8780;DHT22;62328;51.19929245;4.42130175;2023-02-25T10:07:53;8.60;99.90
8780;DHT22;62328;51.19929245;4.42130175;2023-02-25T10:10:26;8.70;99.90
8780;DHT22;62328;51.19929245;4.42130175;2023-02-25T10:13:01;8.60;99.90
8780;DHT22;62328;51.19929245;4.42130175;2023-02-25T10:15:45;8.50;99.90
8780;DHT22;62328;51.19929245;4.42130175;2023-02-25T10:18:40;8.40;99.90
8780;DHT22;62328;51.19929245;4.42130175;2023-02-25T10:21:16;8.40;99.90
8780;DHT22;62328;51.19929245;4.42130175;2023-02-25T10:23:57;8.30;99.90
8780;DHT22;62328;51.19929245;4.42130175;2023-02-25T10:26:28;8.20;99.90
8780;DHT22;62328;51.19929245;4.42130175;2023-02-25T10:28:59;8.20;99.90
8780;DHT22;62328;51.19929245;4.42130175;2023-02-25T10:31:29;8.20;99.90
8780;DHT22;62328;51.19929245;4.42130175;2023-02-25T10:34:01;8.30;99.90
8780;DHT22;62328;51.19929245;4.42130175;2023-02-25T10:36:37;8.60;99.90
8780;DHT22;62328;51.19929245;4.42130175;2023-02-25T10:39:08;8.90;99.90
8780;DHT22;62328;51.19929245;4.42130175;2023-02-25T10:41:36;9.30;99.90
8780;DHT22;62328;51.19929245;4.42130175;2023-02-25T10:44:03;9.60;99.90
8780;DHT22;62328;51.19929245;4.42130175;2023-02-25T10:46:36;9.60;99.90
8780;DHT22;62328;51.19929245;4.42130175;2023-02-25T10:49:14;9.60;99.90
8780;DHT22;62328;51.19929245;4.42130175;2023-02-25T10:51:56;9.50;99.90
8780;DHT22;62328;51.19929245;4.42130175;2023-02-25T10:54:23;9.40;99.90
8780;DHT22;62328;51.19929245;4.42130175;2023-02-25T10:56:50;9.40;99.90
8780;DHT22;62328;51.19929245;4.42130175;2023-02-25T10:59:27;9.30;99.90
8780;DHT22;62328;51.19929245;4.42130175;2023-02-25T11:01:56;9.20;99.90
8780;DHT22;62328;51.19929245;4.42130175;2023-02-25T11:04:28;9.20;99.90
8780;DHT22;62328;51.19929245;4.42130175;2023-02-25T11:06:57;9.10;99.90
8780;DHT22;62328;51.19929245;4.42130175;2023-02-25T11:09:30;9.10;99.90
8780;DHT22;62328;51.19929245;4.42130175;2023-02-25T11:12:08;9.00;99.90
8780;DHT22;62328;51.19929245;4.42130175;2023-02-25T11:14:37;8.90;99.90
8780;DHT22;62328;51.19929245;4.42130175;2023-02-25T11:17:10;8.80;99.90
8780;DHT22;62328;51.19929245;4.42130175;2023-02-25T11:19:39;8.80;99.90
8780;DHT22;62328;51.19929245;4.42130175;2023-02-25T11:22:09;8.80;99.90
8780;DHT22;62328;51.19929245;4.42130175;2023-02-25T11:24:38;8.80;99.90
8780;DHT22;62328;51.19929245;4.42130175;2023-02-25T11:27:29;8.70;99.90
8780;DHT22;62328;51.19929245;4.42130175;2023-02-25T11:30:02;8.70;99.90
8780;DHT22;62328;51.19929245;4.42130175;2023-02-25T11:32:31;8.60;99.90
8780;DHT22;62328;51.19929245;4.42130175;2023-02-25T11:35:02;8.60;99.90
8780;DHT22;62328;51.19929245;4.42130175;2023-02-25T11:37:35;8.60;99.90
8780;DHT22;62328;51.19929245;4.42130175;2023-02-25T11:40:19;8.60;99.90
8780;DHT22;62328;51.19929245;4.42130175;2023-02-25T11:42:59;8.70;99.90
8780;DHT22;62328;51.19929245;4.42130175;2023-02-25T11:45:29;9.00;99.90
8780;DHT22;62328;51.19929245;4.42130175;2023-02-25T11:47:58;9.20;99.90
8780;DHT22;62328;51.19929245;4.42130175;2023-02-25T11:50:26;9.40;99.90
8780;DHT22;62328;51.19929245;4.42130175;2023-02-25T11:53:00;9.50;99.90
8780;DHT22;62328;51.19929245;4.42130175;2023-02-25T11:55:45;9.60;99.90
8780;DHT22;62328;51.19929245;4.42130175;2023-02-25T11:58:24;9.50;99.90
8780;DHT22;62328;51.19929245;4.42130175;2023-02-25T12:00:58;9.50;99.90
8780;DHT22;62328;51.19929245;4.42130175;2023-02-25T12:03:43;9.40;99.90
8780;DHT22;62328;51.19929245;4.42130175;2023-02-25T12:06:21;9.40;99.90
8780;DHT22;62328;51.19929245;4.42130175;2023-02-25T12:12:27;9.20;99.90
8780;DHT22;62328;51.19929245;4.42130175;2023-02-25T12:15:17;9.20;99.90
8780;DHT22;62328;51.19929245;4.42130175;2023-02-25T12:18:39;9.30;99.90
8780;DHT22;62328;51.19929245;4.42130175;2023-02-25T12:21:53;9.40;99.90
8780;DHT22;62328;51.19929245;4.42130175;2023-02-25T12:24:43;9.60;99.90
8780;DHT22;62328;51.19929245;4.42130175;2023-02-25T12:27:30;9.80;99.90
8780;DHT22;62328;51.19929245;4.42130175;2023-02-25T12:30:39;10.00;99.90
8780;DHT22;62328;51.19929245;4.42130175;2023-02-25T12:33:22;9.90;99.90
8780;DHT22;62328;51.19929245;4.42130175;2023-02-25T12:36:06;9.70;99.90
8780;DHT22;62328;51.19929245;4.42130175;2023-02-25T12:41:39;9.50;99.90
8780;DHT22;62328;51.19929245;4.42130175;2023-02-25T12:44:23;9.50;99.90
8780;DHT22;62328;51.19929245;4.42130175;2023-02-25T12:47:09;9.70;99.90
8780;DHT22;62328;51.19929245;4.42130175;2023-02-25T12:52:50;9.60;99.90
8780;DHT22;62328;51.19929245;4.42130175;2023-02-25T12:55:47;9.70;99.90
8780;DHT22;62328;51.19929245;4.42130175;2023-02-25T12:58:25;9.80;99.90
8780;DHT22;62328;51.19929245;4.42130175;2023-02-25T13:04:31;10.00;99.90
8780;DHT22;62328;51.19929245;4.42130175;2023-02-25T13:07:16;10.00;99.90
8780;DHT22;62328;51.19929245;4.42130175;2023-02-25T13:10:01;10.00;99.90
8780;DHT22;62328;51.19929245;4.42130175;2023-02-25T13:12:53;10.00;99.90
8780;DHT22;62328;51.19929245;4.42130175;2023-02-25T13:15:28;10.00;99.90
8780;DHT22;62328;51.19929245;4.42130175;2023-02-25T13:18:22;10.00;99.90
8780;DHT22;62328;51.19929245;4.42130175;2023-02-25T13:24:04;9.80;99.90
8780;DHT22;62328;51.19929245;4.42130175;2023-02-25T13:26:47;9.80;99.90
8780;DHT22;62328;51.19929245;4.42130175;2023-02-25T13:29:29;9.70;99.90
8780;DHT22;62328;51.19929245;4.42130175;2023-02-25T13:32:11;9.70;99.90
8780;DHT22;62328;51.19929245;4.42130175;2023-02-25T13:34:45;9.80;99.90
8780;DHT22;62328;51.19929245;4.42130175;2023-02-25T13:37:23;9.90;99.90
8780;DHT22;62328;51.19929245;4.42130175;2023-02-25T13:42:59;10.00;99.90
8780;DHT22;62328;51.19929245;4.42130175;2023-02-25T13:45:48;9.80;99.90
8780;DHT22;62328;51.19929245;4.42130175;2023-02-25T13:48:58;9.50;99.90
8780;DHT22;62328;51.19929245;4.42130175;2023-02-25T13:54:59;9.20;99.90
8780;DHT22;62328;51.19929245;4.42130175;2023-02-25T13:57:46;9.10;99.90
8780;DHT22;62328;51.19929245;4.42130175;2023-02-25T14:00:37;9.00;99.90
8780;DHT22;62328;51.19929245;4.42130175;2023-02-25T14:06:26;8.90;99.90
8780;DHT22;62328;51.19929245;4.42130175;2023-02-25T14:09:08;8.90;99.90
8780;DHT22;62328;51.19929245;4.42130175;2023-02-25T14:11:44;8.90;99.90
8780;DHT22;62328;51.19929245;4.42130175;2023-02-25T14:14:44;8.90;99.90
8780;DHT22;62328;51.19929245;4.42130175;2023-02-25T14:17:39;8.90;99.90
8780;DHT22;62328;51.19929245;4.42130175;2023-02-25T14:20:20;8.90;99.90
8780;DHT22;62328;51.19929245;4.42130175;2023-02-25T14:22:51;8.90;99.90
8780;DHT22;62328;51.19929245;4.42130175;2023-02-25T14:25:32;8.90;99.90
8780;DHT22;62328;51.19929245;4.42130175;2023-02-25T14:28:10;9.10;99.90
8780;DHT22;62328;51.19929245;4.42130175;2023-02-25T14:30:52;9.20;99.90
8780;DHT22;62328;51.19929245;4.42130175;2023-02-25T14:33:41;9.30;99.90
8780;DHT22;62328;51.19929245;4.42130175;2023-02-25T14:36:24;9.40;99.90
8780;DHT22;62328;51.19929245;4.42130175;2023-02-25T14:39:12;9.40;99.90
8780;DHT22;62328;51.19929245;4.42130175;2023-02-25T14:41:52;9.50;99.90
8780;DHT22;62328;51.19929245;4.42130175;2023-02-25T14:44:28;9.60;99.90
8780;DHT22;62328;51.19929245;4.42130175;2023-02-25T14:46:59;9.60;99.90
8780;DHT22;62328;51.19929245;4.42130175;2023-02-25T14:49:31;9.60;99.90